Time;durP1;ratioP1;P1;durP2;ratioP2;P2;SDS_P1;SDS_P2;PMS_P1;PMS_P2;Temp;Humidity;BMP_temperature;BMP_pressure;BME280_temperature;BME280_humidity;BME280_pressure;Samples;Min_cycle;Max_cycle;Signal;HPM_P1;HPM_P2
2022/10/23 00:01:36;;;;;;;0.70;0.70;;;;;;;16.08;78.01;100318.59;5088982;28;20657;-74
2022/10/23 00:04:06;;;;;;;0.70;0.70;;;;;;;15.82;78.58;100271.59;5086461;28;20226;-74
2022/10/23 00:06:35;;;;;;;0.70;0.70;;;;;;;15.93;79.54;100305.56;5084374;28;20198;-74
2022/10/23 00:09:03;;;;;;;0.63;0.63;;;;;;;16.05;79.34;100329.91;5086056;28;20210;-74
2022/10/23 00:11:31;;;;;;;0.80;0.80;;;;;;;16.06;79.16;100328.19;5085341;28;20186;-74
2022/10/23 00:14:00;;;;;;;0.70;0.70;;;;;;;15.95;79.96;100299.44;5087808;28;20206;-75
2022/10/23 00:16:27;;;;;;;0.60;0.60;;;;;;;16.06;79.21;100321.22;5088760;28;20270;-74
2022/10/23 00:18:54;;;;;;;0.70;0.70;;;;;;;16.03;78.11;100316.00;5087259;28;20236;-74
2022/10/23 00:21:23;;;;;;;0.70;0.70;;;;;;;16.16;77.57;100317.69;5085679;28;20198;-74
2022/10/23 00:23:50;;;;;;;0.70;0.70;;;;;;;16.10;78.20;100314.22;5086390;28;20986;-74
2022/10/23 00:26:17;;;;;;;1.05;1.05;;;;;;;16.05;77.63;100284.63;5087188;28;20213;-74
2022/10/23 00:28:46;;;;;;;0.70;0.70;;;;;;;15.98;76.48;100268.03;5087269;28;20620;-74
2022/10/23 00:31:13;;;;;;;0.70;0.70;;;;;;;16.09;76.16;100287.19;5085890;28;20220;-74
2022/10/23 00:33:40;;;;;;;0.70;0.70;;;;;;;16.20;75.32;100308.06;5086676;28;20682;-74
2022/10/23 00:36:10;;;;;;;0.60;0.60;;;;;;;16.29;74.51;100293.22;5043298;28;20235;-74
2022/10/23 00:38:39;;;;;;;0.70;0.70;;;;;;;16.30;75.36;100308.03;5088169;28;20199;-74
2022/10/23 00:41:07;;;;;;;0.60;0.60;;;;;;;16.30;75.89;100313.25;5089565;28;20205;-74
2022/10/23 00:43:54;;;;;;;0.70;0.70;;;;;;;16.36;74.81;100302.78;5058882;28;20210;-74
2022/10/23 00:46:21;;;;;;;0.70;0.70;;;;;;;16.30;74.27;100310.63;5072681;28;20190;-74
2022/10/23 00:48:48;;;;;;;0.60;0.60;;;;;;;16.12;73.42;100274.13;5078882;28;20658;-74
2022/10/23 00:51:14;;;;;;;0.60;0.60;;;;;;;16.37;73.91;100307.13;5086940;28;20198;-74
2022/10/23 00:53:44;;;;;;;0.60;0.60;;;;;;;16.42;74.21;100285.28;5049847;28;20201;-74
2022/10/23 00:56:11;;;;;;;0.70;0.70;;;;;;;16.40;73.39;100318.47;5084581;28;20202;-73
2022/10/23 00:58:38;;;;;;;3.92;1.45;;;;;;;16.36;74.48;100321.09;5084541;28;20648;-74
2022/10/23 01:01:16;;;;;;;0.80;0.80;;;;;;;16.55;73.82;100323.63;5085519;28;20211;-74
2022/10/23 01:03:43;;;;;;;0.70;0.70;;;;;;;16.40;74.74;100323.69;5086483;28;20285;-74
2022/10/23 01:06:16;;;;;;;1.02;1.02;;;;;;;16.49;75.84;100321.03;5086710;28;20190;-74
2022/10/23 01:08:50;;;;;;;0.70;0.70;;;;;;;16.33;77.12;100304.53;5087733;28;20198;-74
2022/10/23 01:11:22;;;;;;;0.70;0.70;;;;;;;16.25;79.61;100324.63;5087278;28;20280;-74
2022/10/23 01:14:01;;;;;;;0.70;0.70;;;;;;;16.02;79.25;100300.28;5086380;28;20255;-74
2022/10/23 01:16:36;;;;;;;0.70;0.70;;;;;;;16.00;80.37;100312.53;5090046;28;20553;-74
2022/10/23 01:19:12;;;;;;;0.60;0.60;;;;;;;15.76;83.45;100309.13;5085933;28;20324;-74
2022/10/23 01:21:48;;;;;;;0.68;0.68;;;;;;;15.11;85.38;100227.31;5085889;28;20237;-74
2022/10/23 01:24:29;;;;;;;0.70;0.70;;;;;;;15.37;86.67;100350.94;5084328;28;20214;-74
2022/10/23 01:27:10;;;;;;;0.70;0.70;;;;;;;14.93;87.49;100374.41;5086176;28;20190;-74
2022/10/23 01:29:41;;;;;;;0.80;0.80;;;;;;;14.65;89.78;100369.97;5084509;28;20198;-73
2022/10/23 01:32:14;;;;;;;0.80;0.80;;;;;;;14.45;90.51;100342.97;5085501;28;20193;-74
2022/10/23 01:34:47;;;;;;;0.77;0.77;;;;;;;14.20;91.90;100327.16;5085221;28;20210;-74
2022/10/23 01:37:19;;;;;;;0.70;0.70;;;;;;;14.29;92.89;100358.50;5050119;28;20649;-74
2022/10/23 01:39:49;;;;;;;0.70;0.70;;;;;;;14.08;94.67;100365.34;5088855;28;20201;-74
2022/10/23 01:42:21;;;;;;;0.80;0.80;;;;;;;13.86;97.54;100357.41;5086612;28;20213;-74
2022/10/23 01:44:53;;;;;;;1.60;1.50;;;;;;;13.99;97.36;100352.25;5085557;28;20708;-75
2022/10/23 01:47:25;;;;;;;0.88;0.88;;;;;;;14.22;95.18;100361.97;5088665;28;20205;-74
2022/10/23 01:49:53;;;;;;;1.13;1.13;;;;;;;14.26;93.92;100360.25;5086264;28;20190;-74
2022/10/23 01:52:21;;;;;;;0.70;0.70;;;;;;;14.60;91.14;100379.53;5044792;28;20194;-74
2022/10/23 01:54:51;;;;;;;0.70;0.70;;;;;;;14.81;89.52;100375.25;5084936;28;20210;-74
2022/10/23 01:57:22;;;;;;;1.15;1.15;;;;;;;14.96;88.56;100374.41;5083819;28;20221;-74
2022/10/23 01:59:53;;;;;;;0.75;0.75;;;;;;;15.11;86.79;100379.66;5084869;28;20201;-74
2022/10/23 02:02:23;;;;;;;0.63;0.63;;;;;;;15.23;84.99;100371.81;5084987;28;20214;-74
2022/10/23 02:04:57;;;;;;;0.80;0.80;;;;;;;15.11;82.93;100301.31;5084583;28;20217;-74
2022/10/23 02:07:24;;;;;;;0.70;0.70;;;;;;;15.60;81.82;100395.38;5084851;28;20201;-74
2022/10/23 02:09:51;;;;;;;0.70;0.70;;;;;;;15.63;81.15;100393.63;5087108;28;20213;-74
2022/10/23 02:12:28;;;;;;;0.60;0.60;;;;;;;15.90;79.04;100399.72;5085394;28;20210;-74
2022/10/23 02:14:58;;;;;;;0.70;0.70;;;;;;;15.93;78.20;100387.50;5088091;28;20198;-74
2022/10/23 02:17:34;;;;;;;0.75;0.75;;;;;;;16.25;76.92;100401.38;5082481;28;20198;-74
2022/10/23 02:20:14;;;;;;;0.80;0.80;;;;;;;16.38;76.21;100405.69;5085083;28;20200;-74
2022/10/23 02:22:48;;;;;;;0.70;0.70;;;;;;;16.50;75.34;100399.56;5084866;28;20225;-75
2022/10/23 02:25:20;;;;;;;0.70;0.70;;;;;;;16.68;74.54;100399.50;5085120;28;20302;-74
2022/10/23 02:27:52;;;;;;;0.60;0.60;;;;;;;16.83;72.48;100394.22;5084424;28;20264;-74
2022/10/23 02:30:20;;;;;;;0.70;0.70;;;;;;;17.13;71.14;100414.09;5083353;28;20210;-74
2022/10/23 02:32:49;;;;;;;0.60;0.60;;;;;;;17.28;69.91;100408.75;5084118;28;20194;-74
2022/10/23 02:35:20;;;;;;;0.80;0.80;;;;;;;17.42;68.98;100410.41;5084850;28;20190;-74
2022/10/23 02:37:53;;;;;;;0.70;0.70;;;;;;;17.71;67.40;100416.31;5038730;28;20693;-74
2022/10/23 02:40:22;;;;;;;0.70;0.70;;;;;;;17.76;66.71;100396.19;5084301;28;20281;-74
2022/10/23 02:42:56;;;;;;;0.80;0.80;;;;;;;17.95;65.22;100374.13;5084853;28;20202;-75
2022/10/23 02:45:30;;;;;;;0.70;0.70;;;;;;;18.26;64.25;100409.63;5083700;28;20308;-74
2022/10/23 02:48:03;;;;;;;0.70;0.70;;;;;;;18.54;63.30;100414.63;5083728;28;20293;-74
2022/10/23 02:50:39;;;;;;;0.70;0.70;;;;;;;18.69;62.41;100419.69;5087292;28;20198;-74
2022/10/23 02:53:14;;;;;;;1.27;1.27;;;;;;;18.81;61.50;100419.53;5084733;28;20582;-74
2022/10/23 02:55:50;;;;;;;0.65;0.65;;;;;;;18.93;60.93;100426.38;5065970;28;20198;-74
2022/10/23 02:58:24;;;;;;;0.93;0.93;;;;;;;18.94;60.86;100436.84;5084581;28;20206;-74
2022/10/23 03:00:54;;;;;;;0.80;0.80;;;;;;;18.79;61.34;100426.56;5085025;28;20621;-75
2022/10/23 03:03:27;;;;;;;0.60;0.60;;;;;;;18.70;61.39;100405.66;5042567;28;20201;-75
2022/10/23 03:05:54;;;;;;;0.60;0.60;;;;;;;18.78;61.11;100430.94;5083625;28;20305;-75
2022/10/23 03:08:21;;;;;;;5.95;5.43;;;;;;;18.81;61.17;100435.28;5065412;28;20254;-74
2022/10/23 03:10:47;;;;;;;0.60;0.60;;;;;;;18.52;61.37;100400.63;5084727;28;20206;-75
2022/10/23 03:13:14;;;;;;;1.65;1.65;;;;;;;18.73;62.41;100439.75;5084200;28;20252;-75
2022/10/23 03:15:42;;;;;;;0.70;0.70;;;;;;;18.93;61.84;100450.91;5084914;28;20210;-75
2022/10/23 03:18:09;;;;;;;1.08;1.08;;;;;;;18.50;62.26;100418.13;5084365;28;21004;-74
2022/10/23 03:20:36;;;;;;;0.80;0.80;;;;;;;18.59;61.96;100407.53;5082510;28;20197;-75
2022/10/23 03:23:03;;;;;;;1.30;1.30;;;;;;;18.52;62.99;100427.75;5088574;28;20202;-74
2022/10/23 03:25:29;;;;;;;0.63;0.63;;;;;;;18.73;62.81;100447.63;5090470;28;20230;-75
2022/10/23 03:27:56;;;;;;;0.70;0.70;;;;;;;18.48;64.27;100449.66;5090711;28;20574;-74
2022/10/23 03:30:23;;;;;;;0.60;0.60;;;;;;;18.54;64.65;100446.13;5072728;28;20562;-75
2022/10/23 03:32:51;;;;;;;1.42;1.40;;;;;;;18.43;65.43;100432.22;5070258;28;20622;-74
2022/10/23 03:35:18;;;;;;;0.73;0.73;;;;;;;18.18;66.02;100432.50;5080553;28;20202;-74
2022/10/23 03:37:45;;;;;;;0.95;0.95;;;;;;;17.91;67.09;100400.41;5085955;28;20626;-75
2022/10/23 03:40:11;;;;;;;0.70;0.70;;;;;;;18.10;67.31;100423.81;5084313;28;20571;-74
2022/10/23 03:42:38;;;;;;;1.65;1.65;;;;;;;18.10;67.70;100405.44;5052303;28;20313;-75
2022/10/23 03:45:06;;;;;;;0.80;0.80;;;;;;;18.37;68.08;100458.56;5087579;28;20696;-75
2022/10/23 03:47:34;;;;;;;0.70;0.70;;;;;;;17.66;68.73;100363.03;5088242;28;20272;-74
2022/10/23 03:50:02;;;;;;;0.70;0.70;;;;;;;18.37;69.43;100464.66;5054194;28;20194;-74
2022/10/23 03:52:29;;;;;;;1.00;1.00;;;;;;;18.16;70.28;100455.25;5089900;28;20205;-74
2022/10/23 03:54:55;;;;;;;0.80;0.80;;;;;;;18.09;71.11;100442.19;5090614;28;21684;-74
2022/10/23 03:57:23;;;;;;;1.45;1.35;;;;;;;18.21;71.31;100471.84;5085910;28;20202;-74
2022/10/23 03:59:49;;;;;;;0.70;0.70;;;;;;;18.20;72.61;100482.34;5086509;28;20198;-74
2022/10/23 04:02:16;;;;;;;0.90;0.90;;;;;;;18.26;72.30;100493.63;5051197;28;20709;-75
2022/10/23 04:04:43;;;;;;;0.95;0.95;;;;;;;18.15;74.06;100485.03;5088282;28;20258;-75
2022/10/23 04:07:11;;;;;;;0.80;0.80;;;;;;;18.12;75.45;100477.16;5088528;28;20292;-74
2022/10/23 04:09:38;;;;;;;0.98;0.98;;;;;;;17.94;76.91;100465.97;5082050;28;20194;-74
2022/10/23 04:12:06;;;;;;;0.95;0.95;;;;;;;18.10;78.02;100492.06;5087251;28;20198;-74
2022/10/23 04:14:32;;;;;;;2.65;2.55;;;;;;;18.13;78.43;100492.03;5087416;28;20206;-74
2022/10/23 04:16:59;;;;;;;0.80;0.80;;;;;;;17.97;80.97;100485.19;5087915;28;20266;-74
2022/10/23 04:19:26;;;;;;;0.98;0.98;;;;;;;17.94;82.30;100481.72;5087209;28;20226;-74
2022/10/23 04:21:53;;;;;;;0.73;0.73;;;;;;;18.09;84.56;100492.94;5052456;28;20190;-74
2022/10/23 04:24:22;;;;;;;0.63;0.63;;;;;;;18.21;86.57;100505.09;5087507;28;20202;-74
2022/10/23 04:26:49;;;;;;;0.60;0.60;;;;;;;18.12;86.19;100490.28;5086173;28;20282;-75
2022/10/23 04:29:16;;;;;;;1.15;1.15;;;;;;;18.19;86.93;100514.75;5086725;28;20658;-75
2022/10/23 04:31:43;;;;;;;0.60;0.60;;;;;;;18.14;87.70;100504.28;5087315;28;20620;-75
2022/10/23 04:34:10;;;;;;;0.70;0.70;;;;;;;18.07;89.10;100513.09;5086608;28;20834;-74
2022/10/23 04:36:37;;;;;;;1.00;1.00;;;;;;;18.13;89.35;100507.78;5086756;28;20570;-74
2022/10/23 04:39:04;;;;;;;0.80;0.80;;;;;;;18.10;89.54;100506.94;5085840;28;20752;-74
2022/10/23 04:41:32;;;;;;;0.93;0.93;;;;;;;18.20;90.21;100517.34;5087038;28;20262;-75
2022/10/23 04:43:58;;;;;;;0.80;0.80;;;;;;;17.98;92.79;100501.81;5086779;28;20190;-74
2022/10/23 04:46:25;;;;;;;0.70;0.70;;;;;;;17.95;93.90;100489.56;5089337;28;20226;-75
2022/10/23 04:48:52;;;;;;;0.80;0.80;;;;;;;17.99;94.59;100504.41;5086990;28;20239;-75
2022/10/23 04:51:19;;;;;;;1.15;1.15;;;;;;;18.02;95.50;100507.00;5087920;28;20202;-75
2022/10/23 04:53:45;;;;;;;0.65;0.65;;;;;;;18.17;94.62;100525.25;5082800;28;20212;-73
2022/10/23 04:56:14;;;;;;;0.70;0.70;;;;;;;18.09;95.04;100494.69;5083662;28;20202;-76
2022/10/23 04:58:42;;;;;;;0.80;0.80;;;;;;;18.13;97.58;100517.41;5085181;28;20296;-74
2022/10/23 05:01:10;;;;;;;0.68;0.68;;;;;;;18.15;97.93;100526.16;5084829;28;20248;-74
2022/10/23 05:03:38;;;;;;;1.58;1.58;;;;;;;17.98;100.00;100501.81;5084450;28;20285;-74
2022/10/23 05:06:06;;;;;;;0.80;0.80;;;;;;;18.13;100.00;100501.66;5084424;28;20224;-74
2022/10/23 05:08:34;;;;;;;0.80;0.80;;;;;;;18.02;100.00;100501.75;5084701;28;20911;-73
2022/10/23 05:11:01;;;;;;;3.65;2.55;;;;;;;18.15;100.00;100513.91;5041005;28;20194;-75
2022/10/23 05:13:28;;;;;;;0.70;0.70;;;;;;;18.08;100.00;100512.22;5085864;28;20205;-69
2022/10/23 05:15:59;;;;;;;1.50;1.50;;;;;;;18.24;100.00;100521.69;5080953;28;20256;-70
2022/10/23 05:18:28;;;;;;;2.28;1.55;;;;;;;18.32;100.00;100526.84;5083040;28;20325;-70
2022/10/23 05:20:59;;;;;;;0.60;0.60;;;;;;;18.34;100.00;100531.19;5082672;28;20209;-69
2022/10/23 05:23:28;;;;;;;1.02;1.02;;;;;;;18.40;100.00;100534.66;5084317;28;20206;-70
2022/10/23 05:25:54;;;;;;;0.70;0.70;;;;;;;18.25;100.00;100539.19;5083056;28;20686;-71
2022/10/23 05:28:21;;;;;;;0.80;0.80;;;;;;;18.29;100.00;100551.41;5082685;28;20255;-72
2022/10/23 05:30:49;;;;;;;2.10;2.00;;;;;;;18.24;100.00;100532.16;5083877;28;20190;-69
2022/10/23 05:33:17;;;;;;;3.70;1.98;;;;;;;18.42;100.00;100559.13;5083369;28;20199;-72
2022/10/23 05:35:45;;;;;;;0.80;0.80;;;;;;;18.39;100.00;100570.56;5083450;28;20254;-72
2022/10/23 05:38:14;;;;;;;0.60;0.60;;;;;;;18.40;100.00;100566.16;5082620;28;20264;-72
2022/10/23 05:40:41;;;;;;;0.73;0.73;;;;;;;18.36;100.00;100570.59;5081455;28;20206;-72
2022/10/23 05:43:08;;;;;;;0.70;0.70;;;;;;;18.44;100.00;100573.16;5081786;28;20228;-73
2022/10/23 05:45:34;;;;;;;1.10;1.10;;;;;;;18.33;100.00;100563.59;5077991;28;20629;-72
2022/10/23 05:48:01;;;;;;;0.90;0.90;;;;;;;18.60;100.00;100574.75;5081762;28;20263;-72
2022/10/23 05:50:29;;;;;;;0.90;0.90;;;;;;;18.79;100.00;100590.34;5079572;28;20696;-72
2022/10/23 05:52:56;;;;;;;0.80;0.80;;;;;;;18.64;100.00;100597.50;5081108;28;20206;-73
2022/10/23 05:55:23;;;;;;;0.60;0.60;;;;;;;18.39;100.00;100561.81;5081109;28;20209;-71
2022/10/23 05:57:50;;;;;;;0.60;0.60;;;;;;;18.63;100.00;100595.75;5081445;28;20206;-72
2022/10/23 06:00:17;;;;;;;0.70;0.70;;;;;;;18.77;100.00;100581.59;5080860;28;20206;-71
2022/10/23 06:02:43;;;;;;;0.70;0.70;;;;;;;18.74;100.00;100591.25;5081667;28;20200;-71
2022/10/23 06:05:10;;;;;;;0.70;0.70;;;;;;;18.86;100.00;100585.88;5082706;28;20202;-72
2022/10/23 06:07:38;;;;;;;0.70;0.70;;;;;;;19.04;100.00;100595.31;5082121;28;20194;-72
2022/10/23 06:10:06;;;;;;;0.68;0.68;;;;;;;18.98;100.00;100595.41;5085059;28;20202;-73
2022/10/23 06:12:33;;;;;;;0.73;0.73;;;;;;;18.96;100.00;100598.03;5083423;28;20218;-72
2022/10/23 06:14:59;;;;;;;0.60;0.60;;;;;;;18.90;100.00;100584.09;5062925;28;20267;-72
2022/10/23 06:17:27;;;;;;;0.70;0.70;;;;;;;18.98;100.00;100605.91;5047764;28;20242;-72
2022/10/23 06:19:59;;;;;;;0.68;0.68;;;;;;;18.91;100.00;100605.09;5082318;28;20290;-72
2022/10/23 06:22:26;;;;;;;0.60;0.60;;;;;;;19.09;100.00;100617.16;5082720;28;20205;-73
2022/10/23 06:24:54;;;;;;;0.63;0.63;;;;;;;19.03;100.00;100626.00;5082757;28;20208;-73
2022/10/23 06:27:21;;;;;;;0.70;0.70;;;;;;;18.89;100.00;100606.88;5082833;28;20236;-71
2022/10/23 06:29:48;;;;;;;1.23;1.23;;;;;;;19.05;100.00;100613.69;5084371;28;20209;-71
2022/10/23 06:32:15;;;;;;;0.60;0.60;;;;;;;19.07;100.00;100611.06;5085595;28;20205;-71
2022/10/23 06:34:41;;;;;;;0.80;0.80;;;;;;;19.27;100.00;100627.47;5077187;28;20206;-71
2022/10/23 06:37:08;;;;;;;18.10;1.17;;;;;;;19.16;100.00;100618.81;5085653;28;20206;-72
2022/10/23 06:39:35;;;;;;;0.60;0.60;;;;;;;19.00;100.00;100610.25;5071393;28;20253;-72
2022/10/23 06:42:04;;;;;;;0.60;0.60;;;;;;;19.50;99.76;100640.38;5076466;28;20203;-72
2022/10/23 06:44:30;;;;;;;0.60;0.60;;;;;;;19.38;99.58;100627.34;5072107;28;20268;-73
2022/10/23 06:46:59;;;;;;;0.80;0.80;;;;;;;19.42;99.93;100663.28;5086465;28;20249;-72
2022/10/23 06:49:25;;;;;;;0.70;0.70;;;;;;;19.44;99.25;100645.72;5083063;28;20659;-71
2022/10/23 06:51:52;;;;;;;0.70;0.70;;;;;;;19.55;98.36;100651.72;5081341;28;20206;-71
2022/10/23 06:54:19;;;;;;;0.70;0.70;;;;;;;19.51;97.90;100644.75;5056937;28;20334;-73
2022/10/23 06:56:46;;;;;;;0.90;0.90;;;;;;;19.61;97.79;100641.13;5067079;28;20200;-71
2022/10/23 06:59:15;;;;;;;0.70;0.70;;;;;;;19.87;95.53;100651.31;5089992;28;20202;-71
2022/10/23 07:01:41;;;;;;;0.60;0.60;;;;;;;19.79;95.11;100657.56;5069119;28;20222;-73
2022/10/23 07:04:08;;;;;;;0.60;0.60;;;;;;;19.89;94.04;100668.81;5073798;28;20627;-71
2022/10/23 07:06:35;;;;;;;0.60;0.60;;;;;;;19.99;93.45;100662.53;5078435;28;20235;-71
2022/10/23 07:09:02;;;;;;;0.60;0.60;;;;;;;19.88;92.79;100667.06;5074108;28;20194;-72
2022/10/23 07:11:29;;;;;;;0.70;0.70;;;;;;;19.79;93.21;100651.41;5071772;28;20211;-71
2022/10/23 07:13:55;;;;;;;0.70;0.70;;;;;;;20.05;91.47;100670.31;5069762;28;20308;-71
2022/10/23 07:16:24;;;;;;;0.90;0.90;;;;;;;20.15;90.87;100671.97;5073111;28;20206;-72
2022/10/23 07:18:57;;;;;;;0.60;0.60;;;;;;;20.30;89.33;100680.56;5073073;28;20726;-71
2022/10/23 07:21:24;;;;;;;0.68;0.68;;;;;;;20.13;89.65;100665.81;5089462;28;20642;-71
2022/10/23 07:23:51;;;;;;;0.63;0.63;;;;;;;20.09;88.98;100679.06;5067819;28;20195;-73
2022/10/23 07:26:18;;;;;;;0.60;0.60;;;;;;;20.14;89.00;100680.75;5067867;28;20230;-73
2022/10/23 07:28:47;;;;;;;0.60;0.60;;;;;;;19.92;87.75;100613.47;5073692;28;20202;-72
2022/10/23 07:31:14;;;;;;;0.70;0.70;;;;;;;20.03;87.47;100658.09;5085102;28;20205;-73
2022/10/23 07:33:42;;;;;;;0.80;0.80;;;;;;;20.42;86.73;100690.88;5073701;28;20202;-75
2022/10/23 07:36:10;;;;;;;0.70;0.70;;;;;;;20.37;86.43;100676.94;5073721;28;20213;-74
2022/10/23 07:38:37;;;;;;;0.60;0.60;;;;;;;20.25;85.65;100678.81;5073549;28;20198;-74
2022/10/23 07:41:04;;;;;;;0.60;0.60;;;;;;;20.27;86.20;100677.06;5072925;28;20645;-70
2022/10/23 07:43:31;;;;;;;0.68;0.68;;;;;;;20.37;nan;100698.00;5071851;28;20680;-72
2022/10/23 07:45:58;;;;;;;0.60;0.60;;;;;;;20.46;84.07;100704.00;5074084;28;20231;-72
2022/10/23 07:48:26;;;;;;;0.60;0.60;;;;;;;20.51;83.41;100696.03;5068772;28;20202;-73
2022/10/23 07:50:57;;;;;;;0.70;0.70;;;;;;;20.52;83.74;100703.03;5059000;28;20280;-72
2022/10/23 07:53:25;;;;;;;0.70;0.70;;;;;;;20.31;81.91;100629.59;5060104;28;20588;-72
2022/10/23 07:55:53;;;;;;;0.60;0.60;;;;;;;20.64;82.06;100702.84;5059160;28;20206;-72
2022/10/23 07:58:20;;;;;;;0.70;0.70;;;;;;;20.49;81.81;100700.44;5060287;28;20755;-72
2022/10/23 08:00:53;;;;;;;0.60;0.60;;;;;;;20.59;80.97;100683.59;5067808;28;20202;-72
2022/10/23 08:03:20;;;;;;;0.70;0.70;;;;;;;20.67;81.44;100713.31;5072760;28;20520;-72
2022/10/23 08:05:47;;;;;;;0.60;0.60;;;;;;;20.69;79.85;100708.91;5066826;28;20708;-72
2022/10/23 08:08:15;;;;;;;0.68;0.68;;;;;;;21.07;78.60;100722.31;5065052;28;20210;-69
2022/10/23 08:10:42;;;;;;;0.60;0.60;;;;;;;21.16;77.70;100721.28;5061399;28;20206;-72
2022/10/23 08:13:12;;;;;;;0.60;0.60;;;;;;;21.17;77.75;100716.00;5059343;28;20201;-71
2022/10/23 08:15:38;;;;;;;0.60;0.60;;;;;;;21.18;76.75;100717.75;5069132;28;20234;-71
2022/10/23 08:18:05;;;;;;;0.70;0.70;;;;;;;21.16;76.68;100714.25;5050788;28;20227;-71
2022/10/23 08:20:33;;;;;;;0.60;0.60;;;;;;;21.11;76.63;100704.72;5074862;28;20210;-71
2022/10/23 08:23:00;;;;;;;0.95;0.93;;;;;;;21.37;75.61;100722.69;5076910;28;20231;-72
2022/10/23 08:25:28;;;;;;;0.95;0.95;;;;;;;21.56;74.48;100710.88;5064157;28;20221;-72
2022/10/23 08:27:55;;;;;;;0.63;0.63;;;;;;;21.25;73.94;100698.28;5075851;28;20226;-73
2022/10/23 08:30:22;;;;;;;0.60;0.60;;;;;;;21.17;72.77;100687.00;5067935;28;20196;-73
2022/10/23 08:32:48;;;;;;;0.60;0.60;;;;;;;21.41;72.46;100719.06;5068667;28;20707;-72
2022/10/23 08:35:15;;;;;;;0.60;0.60;;;;;;;21.42;72.33;100715.53;5023205;28;20195;-73
2022/10/23 08:37:42;;;;;;;0.70;0.70;;;;;;;21.33;72.09;100710.47;5039362;28;20203;-72
2022/10/23 08:40:15;;;;;;;0.60;0.60;;;;;;;21.58;71.22;100717.00;5059917;28;20218;-71
2022/10/23 08:42:47;;;;;;;0.80;0.80;;;;;;;21.45;71.26;100710.19;5058111;28;20202;-71
2022/10/23 08:45:31;;;;;;;0.60;0.60;;;;;;;20.99;70.73;100631.91;5065682;28;20276;-70
2022/10/23 08:48:04;;;;;;;0.70;0.70;;;;;;;21.67;70.65;100715.03;5064948;28;20253;-71
2022/10/23 08:50:36;;;;;;;0.70;0.70;;;;;;;21.74;69.84;100713.13;5069955;28;20202;-70
2022/10/23 08:53:11;;;;;;;0.60;0.60;;;;;;;21.92;68.79;100717.19;5070661;28;20198;-72
2022/10/23 08:55:43;;;;;;;0.60;0.60;;;;;;;21.76;68.83;100714.84;5064995;28;20205;-72
2022/10/23 08:58:17;;;;;;;0.70;0.70;;;;;;;21.91;67.61;100695.19;5065199;28;20221;-72
2022/10/23 09:00:46;;;;;;;0.70;0.70;;;;;;;22.18;67.28;100713.09;5069580;28;20199;-72
2022/10/23 09:03:13;;;;;;;0.70;0.70;;;;;;;22.01;66.74;100709.09;5066114;28;20195;-71
2022/10/23 09:05:54;;;;;;;1.25;1.25;;;;;;;21.73;65.83;100641.00;5068617;28;20207;-72
2022/10/23 09:08:39;;;;;;;0.70;0.70;;;;;;;22.23;65.00;100681.28;5068087;28;20226;-71
2022/10/23 09:11:15;;;;;;;0.70;0.70;;;;;;;22.05;64.88;100702.81;5073548;28;20195;-71
2022/10/23 09:14:12;;;;;;;0.60;0.60;;;;;;;22.37;64.26;100723.22;5059180;28;20635;-72
2022/10/23 09:16:51;;;;;;;0.70;0.70;;;;;;;22.19;63.84;100712.19;5063230;28;20222;-73
2022/10/23 09:19:23;;;;;;;0.60;0.60;;;;;;;22.13;63.87;100717.59;5069717;28;20307;-72
2022/10/23 09:21:50;;;;;;;0.80;0.80;;;;;;;22.06;63.62;100709.84;5070669;28;20207;-73
2022/10/23 09:24:20;;;;;;;0.73;0.73;;;;;;;22.04;63.75;100722.22;5068289;28;20203;-73
2022/10/23 09:26:49;;;;;;;0.70;0.70;;;;;;;22.22;64.12;100716.56;5072258;28;20734;-72
2022/10/23 09:29:24;;;;;;;0.77;0.77;;;;;;;22.20;63.38;100719.22;5069162;28;20199;-72
2022/10/23 09:31:52;;;;;;;0.70;0.70;;;;;;;22.35;62.67;100725.94;5073751;28;20221;-72
2022/10/23 09:34:21;;;;;;;0.70;0.70;;;;;;;22.35;62.98;100723.28;5073677;28;20605;-71
2022/10/23 09:36:50;;;;;;;0.60;0.60;;;;;;;22.37;63.16;100720.59;5072862;28;20203;-72
2022/10/23 09:39:30;;;;;;;0.70;0.70;;;;;;;22.58;62.14;100731.53;5070068;28;20670;-72
2022/10/23 09:41:57;;;;;;;0.70;0.70;;;;;;;22.80;61.22;100731.91;5067318;28;20686;-72
2022/10/23 09:44:27;;;;;;;0.70;0.70;;;;;;;22.64;61.73;100710.25;5067373;28;20317;-73
2022/10/23 09:46:56;;;;;;;0.63;0.63;;;;;;;22.58;61.57;100728.88;5038538;28;20230;-72
2022/10/23 09:49:24;;;;;;;0.60;0.60;;;;;;;22.85;60.21;100724.75;5068137;28;20199;-72
2022/10/23 09:52:00;;;;;;;0.60;0.60;;;;;;;22.86;59.95;100722.97;5059140;28;20207;-72
2022/10/23 09:54:28;;;;;;;0.70;0.70;;;;;;;22.83;59.70;100715.97;5062900;28;20278;-72
2022/10/23 09:56:56;;;;;;;0.60;0.60;;;;;;;22.61;59.64;100678.59;5067921;28;20263;-72
2022/10/23 09:59:28;;;;;;;0.65;0.65;;;;;;;22.74;59.80;100705.63;5071950;28;20199;-72
2022/10/23 10:01:56;;;;;;;2.05;1.95;;;;;;;22.82;59.75;100703.69;5055251;28;20218;-73
2022/10/23 10:04:35;;;;;;;0.70;0.70;;;;;;;23.00;59.25;100707.63;5054351;28;20264;-73
2022/10/23 10:07:05;;;;;;;0.95;0.90;;;;;;;22.93;58.87;100709.56;5054358;28;20231;-72
2022/10/23 10:09:33;;;;;;;0.70;0.70;;;;;;;22.68;59.00;100701.38;5055374;28;20289;-72
2022/10/23 10:12:15;;;;;;;0.70;0.70;;;;;;;22.95;58.78;100707.75;5069035;28;20195;-71
2022/10/23 10:14:53;;;;;;;0.70;0.70;;;;;;;23.11;58.84;100711.75;5062667;28;20294;-71
2022/10/23 10:17:26;;;;;;;0.70;0.70;;;;;;;23.09;58.05;100702.97;5065269;28;20202;-71
2022/10/23 10:20:12;;;;;;;0.60;0.60;;;;;;;23.25;57.72;100697.25;5078082;28;20238;-72
2022/10/23 10:22:42;;;;;;;0.70;0.70;;;;;;;23.02;57.89;100692.56;5070121;28;20631;-72
2022/10/23 10:25:16;;;;;;;0.70;0.70;;;;;;;23.27;56.88;100676.91;5059887;28;20257;-72
2022/10/23 10:27:56;;;;;;;0.60;0.60;;;;;;;23.44;56.34;100680.84;5071363;28;20370;-71
2022/10/23 10:30:27;;;;;;;0.73;0.73;;;;;;;23.47;56.65;100664.88;5077921;28;20194;-71
2022/10/23 10:33:00;;;;;;;0.80;0.80;;;;;;;23.56;56.22;100677.88;5076738;28;20210;-72
2022/10/23 10:35:37;;;;;;;0.70;0.70;;;;;;;23.56;55.64;100666.41;5050560;28;20203;-75
2022/10/23 10:38:18;;;;;;;0.63;0.63;;;;;;;23.68;55.22;100687.25;5067894;28;20329;-73
2022/10/23 10:40:58;;;;;;;0.70;0.70;;;;;;;23.58;55.45;100681.31;5062882;28;20203;-73
2022/10/23 10:43:35;;;;;;;0.60;0.60;;;;;;;23.74;54.83;100665.00;5065206;28;20354;-72
2022/10/23 10:46:14;;;;;;;8.50;5.18;;;;;;;23.66;54.76;100678.47;5064050;28;20199;-73
2022/10/23 10:48:49;;;;;;;0.70;0.70;;;;;;;23.70;53.34;100659.81;5067526;28;20246;-72
2022/10/23 10:51:24;;;;;;;0.70;0.70;;;;;;;23.55;53.35;100639.06;5072660;28;20274;-75
2022/10/23 10:54:04;;;;;;;0.60;0.60;;;;;;;23.88;53.06;100655.72;5053258;28;20198;-72
2022/10/23 10:56:35;;;;;;;0.70;0.70;;;;;;;23.66;53.80;100649.34;5068148;28;20222;-71
2022/10/23 10:59:10;;;;;;;0.70;0.70;;;;;;;23.64;54.02;100648.53;5072953;28;20207;-72
2022/10/23 11:01:42;;;;;;;0.60;0.60;;;;;;;23.89;53.39;100657.47;5069807;28;20194;-73
2022/10/23 11:04:14;;;;;;;0.60;0.60;;;;;;;24.07;53.12;100680.75;5068516;28;20663;-72
2022/10/23 11:06:44;;;;;;;0.60;0.60;;;;;;;24.03;52.90;100672.94;5073381;28;20210;-73
2022/10/23 11:09:16;;;;;;;0.70;0.70;;;;;;;24.00;52.16;100655.38;5070672;28;20209;-71
2022/10/23 11:11:43;;;;;;;1.23;1.23;;;;;;;23.77;52.32;100652.53;5072547;28;20264;-73
2022/10/23 11:14:16;;;;;;;0.70;0.70;;;;;;;23.99;51.99;100644.81;5073869;28;20202;-71
2022/10/23 11:16:48;;;;;;;0.82;0.82;;;;;;;23.91;51.65;100642.38;5068191;28;20231;-71
2022/10/23 11:19:22;;;;;;;1.75;1.17;;;;;;;23.96;51.13;100644.91;5066910;28;20789;-74
2022/10/23 11:21:57;;;;;;;0.70;0.70;;;;;;;24.29;50.88;100685.44;5063736;28;20256;-74
2022/10/23 11:24:51;;;;;;;0.60;0.60;;;;;;;24.00;50.82;100679.22;5054318;28;20290;-71
2022/10/23 11:27:46;;;;;;;0.57;0.57;;;;;;;24.06;50.40;100672.84;5072829;28;20234;-71
2022/10/23 11:30:21;;;;;;;0.95;0.95;;;;;;;23.56;50.46;100598.44;5085029;28;20210;-71
2022/10/23 11:33:07;;;;;;;0.63;0.63;;;;;;;24.14;50.01;100661.13;5054762;28;20201;-72
2022/10/23 11:35:53;;;;;;;0.60;0.60;;;;;;;23.95;50.26;100649.34;5073140;28;20221;-73
2022/10/23 11:38:26;;;;;;;0.70;0.70;;;;;;;23.86;50.28;100660.22;5083158;28;20230;-72